createdAt,value
2022-10-29T00:02:09.034Z,101922.94
2022-10-29T00:04:35.570Z,101921.03
2022-10-29T00:07:02.267Z,101921.38
2022-10-29T00:09:28.840Z,101933.09
2022-10-29T00:11:55.272Z,101936.13
2022-10-29T00:14:21.726Z,101925.47
2022-10-29T00:16:48.169Z,101930.22
2022-10-29T00:19:14.573Z,101941.09
2022-10-29T00:21:41.081Z,101940.25
2022-10-29T00:24:09.966Z,101957.59
2022-10-29T00:26:36.484Z,101946.16
2022-10-29T00:29:02.971Z,101943.78
2022-10-29T00:31:29.491Z,101951.88
2022-10-29T00:33:56.069Z,101958.22
2022-10-29T00:36:26.203Z,101958.97
2022-10-29T00:38:52.685Z,101946.69
2022-10-29T00:41:22.199Z,101948.94
2022-10-29T00:43:51.292Z,101954.34
2022-10-29T00:46:23.777Z,101954.34
2022-10-29T00:48:52.457Z,101951.81
2022-10-29T00:51:19.196Z,101965.84
2022-10-29T00:53:52.345Z,101959.19
2022-10-29T00:56:19.097Z,101970.31
2022-10-29T00:58:46.236Z,101951.75
2022-10-29T01:01:13.827Z,101944.06
2022-10-29T01:03:41.320Z,101963.50
2022-10-29T01:06:08.305Z,101951.09
2022-10-29T01:08:34.869Z,101963.94
2022-10-29T01:11:29.335Z,101971.28
2022-10-29T01:14:02.875Z,101969.66
2022-10-29T01:16:58.500Z,101980.44
2022-10-29T01:19:46.126Z,101984.97
2022-10-29T01:22:35.431Z,101983.91
2022-10-29T01:25:26.753Z,101986.13
2022-10-29T01:28:24.209Z,101978.16
2022-10-29T01:31:09.522Z,101978.69
2022-10-29T01:33:41.014Z,101989.81
2022-10-29T01:36:19.511Z,101981.09
2022-10-29T01:39:10.506Z,101978.94
2022-10-29T01:41:41.870Z,101983.16
2022-10-29T01:44:36.722Z,101975.72
2022-10-29T01:47:04.943Z,101977.31
2022-10-29T01:49:38.954Z,101980.44
2022-10-29T01:52:07.276Z,101978.00
2022-10-29T01:54:33.744Z,101964.59
2022-10-29T01:57:00.819Z,101959.41
2022-10-29T01:59:35.899Z,101977.31
2022-10-29T02:02:22.609Z,101971.06
2022-10-29T02:05:19.920Z,101953.94
2022-10-29T02:08:32.622Z,101953.19
2022-10-29T02:11:13.463Z,101952.72
2022-10-29T02:14:07.847Z,101933.00
2022-10-29T02:16:34.304Z,101947.13
2022-10-29T02:19:00.991Z,101939.22
2022-10-29T02:21:27.458Z,101935.66
2022-10-29T02:23:53.892Z,101931.31
2022-10-29T02:26:21.723Z,101939.03
2022-10-29T02:28:48.134Z,101941.22
2022-10-29T02:31:14.554Z,101928.78
2022-10-29T02:33:40.986Z,101924.78
2022-10-29T02:36:08.029Z,101948.69
2022-10-29T02:38:34.497Z,101943.50
2022-10-29T02:41:01.106Z,101947.13
2022-10-29T02:43:27.599Z,101935.97
2022-10-29T02:46:16.914Z,101938.84
2022-10-29T02:48:43.572Z,101944.25
2022-10-29T02:51:10.360Z,101942.97
2022-10-29T02:53:37.143Z,101935.34
2022-10-29T02:56:04.634Z,101923.31
2022-10-29T02:58:31.077Z,101907.44
2022-10-29T03:00:57.469Z,101923.50
2022-10-29T03:03:24.914Z,101920.38
2022-10-29T03:05:51.528Z,101907.44
2022-10-29T03:08:18.330Z,101921.28
2022-10-29T03:10:45.075Z,101914.75
2022-10-29T03:13:11.900Z,101900.72
2022-10-29T03:15:38.530Z,101900.72
2022-10-29T03:18:05.307Z,101893.81
2022-10-29T03:20:31.784Z,101890.63
2022-10-29T03:22:58.954Z,101887.41
2022-10-29T03:25:25.376Z,101884.81
2022-10-29T03:27:51.957Z,101886.06
2022-10-29T03:30:18.716Z,101887.59
2022-10-29T03:32:47.334Z,101894.63
2022-10-29T03:35:15.470Z,101889.44
2022-10-29T03:37:42.018Z,101900.69
2022-10-29T03:40:09.046Z,101904.38
2022-10-29T03:42:35.547Z,101886.81
2022-10-29T03:45:02.299Z,101897.13
2022-10-29T03:47:29.137Z,101891.88
2022-10-29T03:49:55.937Z,101898.97
2022-10-29T03:52:22.457Z,101895.94
2022-10-29T03:54:49.012Z,101899.25
2022-10-29T03:57:15.475Z,101887.13
2022-10-29T03:59:41.897Z,101898.31
2022-10-29T04:02:10.001Z,101897.03
2022-10-29T04:04:36.535Z,101895.88
2022-10-29T04:07:03.144Z,101900.97
2022-10-29T04:09:29.790Z,101907.03
2022-10-29T04:11:56.196Z,101914.63
2022-10-29T04:14:22.677Z,101924.19
2022-10-29T04:16:49.230Z,101928.84
2022-10-29T04:19:15.698Z,101929.19
2022-10-29T04:30:02.070Z,101924.72
2022-10-29T04:32:28.587Z,101908.88
2022-10-29T04:34:54.967Z,101919.81
2022-10-29T04:37:21.375Z,101922.44
2022-10-29T04:39:47.833Z,101923.13
2022-10-29T04:42:14.239Z,101922.44
2022-10-29T04:44:40.650Z,101916.59
2022-10-29T04:47:07.060Z,101920.00
2022-10-29T04:49:33.629Z,101903.94
2022-10-29T04:52:00.103Z,101913.41
2022-10-29T04:54:26.547Z,101907.34
2022-10-29T04:56:53.203Z,101912.03
2022-10-29T04:59:19.770Z,101912.16
2022-10-29T05:01:46.203Z,101912.03
2022-10-29T05:04:13.387Z,101909.78
2022-10-29T05:06:40.953Z,101909.09
2022-10-29T05:09:07.387Z,101890.78
2022-10-29T05:11:33.827Z,101896.16
2022-10-29T05:14:00.318Z,101900.00
2022-10-29T05:16:26.736Z,101903.16
2022-10-29T05:18:53.183Z,101905.44
2022-10-29T05:21:19.611Z,101900.34
2022-10-29T05:23:46.199Z,101901.03
2022-10-29T05:26:12.614Z,101903.97
2022-10-29T05:28:39.072Z,101913.28
2022-10-29T05:31:05.531Z,101919.06
2022-10-29T05:33:31.916Z,101911.91
2022-10-29T05:36:00.966Z,101917.25
2022-10-29T05:38:27.533Z,101917.25
2022-10-29T05:40:53.973Z,101927.94
2022-10-29T05:43:20.428Z,101926.00
2022-10-29T05:45:47.243Z,101923.47
2022-10-29T05:48:13.707Z,101926.63
2022-10-29T05:50:40.345Z,101938.09
2022-10-29T05:53:10.793Z,101935.78
2022-10-29T05:55:37.504Z,101928.56
2022-10-29T05:58:14.613Z,101918.31
2022-10-29T06:00:43.546Z,101926.03
2022-10-29T06:03:15.288Z,101931.63
2022-10-29T06:05:41.856Z,101922.50
2022-10-29T06:08:08.590Z,101905.78
2022-10-29T06:10:35.190Z,101904.72
2022-10-29T06:13:01.675Z,101913.53
2022-10-29T06:15:28.274Z,101912.00
2022-10-29T06:17:57.913Z,101914.44
2022-10-29T06:20:24.570Z,101912.88
2022-10-29T06:22:58.485Z,101925.16
2022-10-29T06:25:25.949Z,101913.03
2022-10-29T06:27:59.883Z,101913.72
2022-10-29T06:30:26.785Z,101913.72
2022-10-29T06:32:53.435Z,101920.44
2022-10-29T06:35:20.132Z,101912.41
2022-10-29T06:37:46.659Z,101905.97
2022-10-29T06:40:13.233Z,101909.03
2022-10-29T06:42:39.652Z,101913.16
2022-10-29T06:45:06.626Z,101915.75
2022-10-29T06:47:45.375Z,101907.09
2022-10-29T06:51:01.897Z,101918.19
2022-10-29T06:53:28.395Z,101925.00
2022-10-29T06:55:55.139Z,101912.69
2022-10-29T06:58:21.923Z,101911.38
2022-10-29T07:00:48.576Z,101923.06
2022-10-29T07:03:19.870Z,101918.44
2022-10-29T07:05:47.277Z,101909.84
2022-10-29T07:08:13.749Z,101918.41
2022-10-29T07:10:40.463Z,101907.81
2022-10-29T07:13:07.862Z,101929.41
2022-10-29T07:15:34.413Z,101920.97
2022-10-29T07:18:06.037Z,101925.66
2022-10-29T07:20:36.178Z,101937.78
2022-10-29T07:23:02.657Z,101933.81
2022-10-29T07:25:29.818Z,101935.53
2022-10-29T07:28:05.954Z,101934.94
2022-10-29T07:30:33.680Z,101936.16
2022-10-29T07:33:00.207Z,101927.72
2022-10-29T07:35:27.311Z,101940.44
2022-10-29T07:38:00.345Z,101916.34
2022-10-29T07:40:28.670Z,101910.25
2022-10-29T07:42:55.631Z,101928.53
2022-10-29T07:45:22.504Z,101930.22
2022-10-29T07:47:48.977Z,101936.34
2022-10-29T07:50:15.912Z,101921.13
2022-10-29T07:52:42.969Z,101935.66
2022-10-29T07:55:09.638Z,101920.84
2022-10-29T07:57:36.019Z,101931.66
2022-10-29T08:00:02.711Z,101925.66
2022-10-29T08:02:29.211Z,101942.47
2022-10-29T08:04:55.651Z,101941.59
2022-10-29T08:07:22.116Z,101941.28
2022-10-29T08:09:48.486Z,101937.44
2022-10-29T08:12:14.992Z,101950.84
2022-10-29T08:14:41.366Z,101947.13
2022-10-29T08:17:07.822Z,101953.69
2022-10-29T08:19:34.307Z,101952.72
2022-10-29T08:22:00.762Z,101955.31
2022-10-29T08:24:27.195Z,101962.78
2022-10-29T08:26:53.623Z,101969.34
2022-10-29T08:29:20.072Z,101963.59
2022-10-29T08:31:46.754Z,101963.75
2022-10-29T08:34:13.518Z,101971.50
2022-10-29T08:36:41.163Z,101986.47
2022-10-29T08:39:08.019Z,101976.88
2022-10-29T08:41:46.584Z,101968.47
2022-10-29T08:44:25.870Z,101959.97
2022-10-29T08:47:15.112Z,101957.91
2022-10-29T08:49:59.981Z,101944.50
2022-10-29T08:52:31.851Z,101935.75
2022-10-29T08:55:13.486Z,101940.09
2022-10-29T08:57:46.609Z,101930.56
2022-10-29T09:00:29.450Z,101932.81
2022-10-29T09:02:57.995Z,101933.44
2022-10-29T09:05:29.570Z,101945.50
2022-10-29T09:08:05.655Z,101950.66
2022-10-29T09:10:43.736Z,101937.34
2022-10-29T09:13:10.096Z,101936.97
2022-10-29T09:15:39.406Z,101935.22
2022-10-29T09:18:41.593Z,101939.41
2022-10-29T09:21:40.372Z,101939.94
2022-10-29T09:24:43.836Z,101947.09
2022-10-29T09:27:16.091Z,101937.22
2022-10-29T09:29:47.830Z,101930.78
2022-10-29T09:32:24.303Z,101936.22
2022-10-29T09:34:55.884Z,101927.31
2022-10-29T09:37:28.346Z,101929.31
2022-10-29T09:39:57.151Z,101918.50
2022-10-29T09:42:34.492Z,101913.09
2022-10-29T09:45:03.562Z,101912.78
2022-10-29T09:47:49.042Z,101921.53
2022-10-29T09:50:45.228Z,101920.91
2022-10-29T09:53:11.700Z,101913.72
2022-10-29T09:55:46.135Z,101914.63
2022-10-29T09:58:20.146Z,101911.16
2022-10-29T10:00:46.664Z,101905.31
2022-10-29T10:03:17.772Z,101913.00
2022-10-29T10:06:08.268Z,101913.16
2022-10-29T10:08:35.746Z,101917.97
2022-10-29T10:11:04.885Z,101913.03
2022-10-29T10:13:34.162Z,101928.66
2022-10-29T10:16:02.637Z,101928.81
2022-10-29T10:18:32.040Z,101930.00
2022-10-29T10:21:04.736Z,101923.78
2022-10-29T10:23:43.405Z,101909.63
2022-10-29T10:26:28.540Z,101900.75
2022-10-29T10:29:08.327Z,101908.94
2022-10-29T10:31:34.934Z,101901.22
2022-10-29T10:34:18.440Z,101908.59
2022-10-29T10:36:56.023Z,101904.53
2022-10-29T10:39:35.586Z,101898.56
2022-10-29T10:42:05.392Z,101902.84
2022-10-29T10:44:32.207Z,101898.88
2022-10-29T10:47:07.116Z,101893.44
2022-10-29T10:49:35.838Z,101889.44
2022-10-29T10:52:27.046Z,101881.59
2022-10-29T10:55:00.616Z,101886.22
2022-10-29T10:57:31.517Z,101888.06
2022-10-29T11:00:06.407Z,101901.44
2022-10-29T11:02:48.373Z,101894.75
2022-10-29T11:05:19.212Z,101887.34
2022-10-29T11:07:51.118Z,101893.09
2022-10-29T11:10:19.149Z,101876.59
2022-10-29T11:12:53.643Z,101871.19
2022-10-29T11:15:30.868Z,101870.41
2022-10-29T11:18:05.120Z,101857.97
2022-10-29T11:20:35.501Z,101851.09
2022-10-29T11:23:21.337Z,101834.06
2022-10-29T11:25:51.373Z,101842.72
2022-10-29T11:28:23.806Z,101844.41
2022-10-29T11:30:54.780Z,101850.78
2022-10-29T11:33:37.015Z,101853.19
2022-10-29T11:36:03.394Z,101842.13
2022-10-29T11:39:10.757Z,101823.09
2022-10-29T11:41:45.274Z,101825.63
2022-10-29T11:44:16.407Z,101816.06
2022-10-29T11:47:07.967Z,101812.13
2022-10-29T11:50:11.465Z,101804.19
2022-10-29T11:52:45.250Z,101803.00
2022-10-29T11:55:33.896Z,101813.78
2022-10-29T11:58:15.168Z,101802.44
2022-10-29T12:01:02.894Z,101810.13
2022-10-29T12:03:50.131Z,101802.66
2022-10-29T12:06:23.632Z,101801.88
2022-10-29T12:09:34.817Z,101801.47
2022-10-29T12:12:08.287Z,101803.16
2022-10-29T12:14:55.362Z,101790.56
2022-10-29T12:17:40.563Z,101789.03
2022-10-29T12:20:27.874Z,101788.22
2022-10-29T12:23:41.992Z,101789.72
2022-10-29T12:26:17.938Z,101784.13
2022-10-29T12:29:13.728Z,101795.56
2022-10-29T12:31:53.364Z,101785.28
2022-10-29T12:34:30.404Z,101785.75
2022-10-29T12:37:09.946Z,101779.22
2022-10-29T12:39:44.143Z,101789.81
2022-10-29T12:42:17.624Z,101786.66
2022-10-29T12:45:14.894Z,101781.41
2022-10-29T12:48:00.464Z,101776.94
2022-10-29T12:50:39.799Z,101767.88
2022-10-29T12:53:12.868Z,101760.06
2022-10-29T12:55:40.104Z,101755.69
2022-10-29T12:58:43.749Z,101758.25
2022-10-29T13:01:57.212Z,101757.72
2022-10-29T13:04:27.033Z,101763.59
2022-10-29T13:06:59.929Z,101754.16
2022-10-29T13:09:28.921Z,101750.97
2022-10-29T13:12:01.417Z,101755.47
2022-10-29T13:14:40.422Z,101759.53
2022-10-29T13:17:23.592Z,101748.53
2022-10-29T13:20:00.176Z,101748.97
2022-10-29T13:22:51.552Z,101747.31
2022-10-29T13:25:43.177Z,101740.78
2022-10-29T13:28:09.779Z,101739.56
2022-10-29T13:30:37.432Z,101731.97
2022-10-29T13:33:27.364Z,101725.25
2022-10-29T13:35:56.317Z,101713.44
2022-10-29T13:38:51.915Z,101721.34
2022-10-29T13:41:29.345Z,101716.41
2022-10-29T13:44:02.404Z,101705.97
2022-10-29T13:46:57.347Z,101716.59
2022-10-29T13:49:26.463Z,101720.81
2022-10-29T13:52:25.263Z,101725.41
2022-10-29T13:54:52.799Z,101711.69
2022-10-29T13:57:26.688Z,101702.16
2022-10-29T14:00:02.056Z,101692.66
2022-10-29T14:02:51.727Z,101694.88
2022-10-29T14:05:24.567Z,101690.59
2022-10-29T14:08:01.162Z,101695.88
2022-10-29T14:10:40.478Z,101702.59
2022-10-29T14:13:27.334Z,101700.16
2022-10-29T14:16:03.360Z,101702.81
2022-10-29T14:18:32.774Z,101702.25
2022-10-29T14:21:01.111Z,101703.22
2022-10-29T14:23:29.055Z,101712.56
2022-10-29T14:25:57.784Z,101704.88
2022-10-29T14:28:31.870Z,101703.63
2022-10-29T14:31:07.179Z,101700.03
2022-10-29T14:33:36.206Z,101699.00
2022-10-29T14:36:13.330Z,101687.78
2022-10-29T14:38:47.861Z,101698.00
2022-10-29T14:41:14.887Z,101687.59
2022-10-29T14:43:42.013Z,101690.91
2022-10-29T14:46:22.381Z,101689.75
2022-10-29T14:48:56.364Z,101691.72
2022-10-29T14:51:22.994Z,101690.31
2022-10-29T14:53:58.463Z,101702.69
2022-10-29T14:56:37.299Z,101694.72
2022-10-29T14:59:12.480Z,101699.69
2022-10-29T15:01:56.769Z,101698.69
2022-10-29T15:04:31.813Z,101697.44
2022-10-29T15:07:37.371Z,101695.19
2022-10-29T15:10:23.262Z,101690.16
2022-10-29T15:12:51.492Z,101694.63
2022-10-29T15:15:18.016Z,101686.25
2022-10-29T15:17:50.298Z,101677.59
2022-10-29T15:20:22.649Z,101675.63
2022-10-29T15:22:53.831Z,101672.28
2022-10-29T15:25:28.719Z,101668.09
2022-10-29T15:27:55.591Z,101671.97
2022-10-29T15:30:30.622Z,101659.06
2022-10-29T15:33:03.353Z,101656.78
2022-10-29T15:35:29.994Z,101653.38
2022-10-29T15:37:56.736Z,101643.13
2022-10-29T15:40:25.347Z,101656.25
2022-10-29T15:42:53.085Z,101649.28
2022-10-29T15:45:22.266Z,101638.69
2022-10-29T15:47:49.638Z,101648.03
2022-10-29T15:50:52.868Z,101637.13
2022-10-29T15:53:19.494Z,101646.16
2022-10-29T15:55:45.916Z,101644.69
2022-10-29T15:58:17.580Z,101644.59
2022-10-29T16:00:44.109Z,101639.19
2022-10-29T16:03:19.877Z,101633.03
2022-10-29T16:05:49.219Z,101646.13
2022-10-29T16:08:38.054Z,101653.19
2022-10-29T16:11:08.177Z,101642.69
2022-10-29T16:13:35.067Z,101637.59
2022-10-29T16:16:04.498Z,101638.94
2022-10-29T16:18:30.909Z,101627.38
2022-10-29T16:20:59.603Z,101619.13
2022-10-29T16:23:26.653Z,101621.38
2022-10-29T16:25:53.172Z,101621.69
2022-10-29T16:28:19.719Z,101624.38
2022-10-29T16:30:49.769Z,101621.94
2022-10-29T16:33:16.563Z,101612.97
2022-10-29T16:35:42.953Z,101615.94
2022-10-29T16:38:10.293Z,101621.19
2022-10-29T16:40:36.899Z,101616.25
2022-10-29T16:43:03.325Z,101623.16
2022-10-29T16:45:30.505Z,101629.47
2022-10-29T16:47:57.587Z,101630.50
2022-10-29T16:50:29.204Z,101633.97
2022-10-29T16:53:00.534Z,101633.81
2022-10-29T16:55:27.744Z,101633.97
2022-10-29T16:57:54.400Z,101624.03
2022-10-29T17:00:21.444Z,101639.63
2022-10-29T17:02:47.895Z,101628.84
2022-10-29T17:05:14.513Z,101619.22
2022-10-29T17:07:41.172Z,101621.31
2022-10-29T17:10:08.454Z,101637.38
2022-10-29T17:12:35.401Z,101630.28
2022-10-29T17:15:01.918Z,101626.56
2022-10-29T17:17:31.505Z,101626.72
2022-10-29T17:19:58.199Z,101627.91
2022-10-29T17:22:24.640Z,101616.22
2022-10-29T17:24:51.208Z,101615.59
2022-10-29T17:27:17.643Z,101622.75
2022-10-29T17:29:44.126Z,101630.41
2022-10-29T17:32:10.628Z,101633.56
2022-10-29T17:34:38.480Z,101630.88
2022-10-29T17:37:05.004Z,101643.00
2022-10-29T17:39:31.466Z,101642.53
2022-10-29T17:41:58.108Z,101645.63
2022-10-29T17:44:26.533Z,101640.19
2022-10-29T17:46:53.842Z,101642.13
2022-10-29T17:49:20.675Z,101643.53
2022-10-29T17:51:47.334Z,101648.22
2022-10-29T17:54:17.424Z,101636.78
2022-10-29T17:56:44.072Z,101639.47
2022-10-29T17:59:10.555Z,101638.00
2022-10-29T18:01:37.307Z,101624.31
2022-10-29T18:04:05.249Z,101632.53
2022-10-29T18:06:32.099Z,101631.66
2022-10-29T18:08:59.834Z,101638.25
2022-10-29T18:11:26.616Z,101641.41
2022-10-29T18:13:53.922Z,101647.50
2022-10-29T18:16:22.727Z,101638.88
2022-10-29T18:19:01.266Z,101630.16
2022-10-29T18:21:28.525Z,101640.13
2022-10-29T18:23:54.996Z,101636.72
2022-10-29T18:26:31.355Z,101636.31
2022-10-29T18:28:59.440Z,101646.47
2022-10-29T18:31:28.037Z,101647.19
2022-10-29T18:33:55.373Z,101630.94
2022-10-29T18:36:21.818Z,101638.63
2022-10-29T18:38:52.691Z,101641.13
2022-10-29T18:41:19.428Z,101636.47
2022-10-29T18:43:46.021Z,101638.72
2022-10-29T18:46:12.629Z,101616.13
2022-10-29T18:48:41.562Z,101621.38
2022-10-29T18:51:10.265Z,101626.72
2022-10-29T18:53:37.698Z,101636.81
2022-10-29T18:56:09.017Z,101634.69
2022-10-29T18:58:35.422Z,101629.84
2022-10-29T19:01:10.667Z,101628.34
2022-10-29T19:03:37.695Z,101636.47
2022-10-29T19:06:06.727Z,101632.41
2022-10-29T19:08:38.500Z,101641.09
2022-10-29T19:11:06.976Z,101637.34
2022-10-29T19:13:33.501Z,101635.63
2022-10-29T19:16:01.751Z,101621.19
2022-10-29T19:18:29.762Z,101618.06
2022-10-29T19:21:04.238Z,101623.28
2022-10-29T19:23:30.750Z,101622.31
2022-10-29T19:25:57.437Z,101608.84
2022-10-29T19:28:23.951Z,101610.56
2022-10-29T19:30:50.341Z,101605.66
2022-10-29T19:33:16.928Z,101615.34
2022-10-29T19:35:43.419Z,101606.84
2022-10-29T19:38:09.815Z,101596.94
2022-10-29T19:40:36.233Z,101594.31
2022-10-29T19:43:02.629Z,101602.00
2022-10-29T19:45:29.051Z,101597.09
2022-10-29T19:47:55.748Z,101594.13
2022-10-29T19:52:55.429Z,101606.97
2022-10-29T19:55:22.169Z,101605.78
2022-10-29T19:57:48.687Z,101599.91
2022-10-29T20:00:17.701Z,101599.63
2022-10-29T20:02:45.077Z,101595.31
2022-10-29T20:05:11.534Z,101594.84
2022-10-29T20:07:38.013Z,101599.47
2022-10-29T20:10:04.705Z,101586.47
2022-10-29T20:12:31.220Z,101596.06
2022-10-29T20:14:57.621Z,101588.97
2022-10-29T20:17:24.339Z,101590.41
2022-10-29T20:19:50.862Z,101579.69
2022-10-29T20:22:17.341Z,101577.56
2022-10-29T20:24:44.308Z,101581.88
2022-10-29T20:27:10.740Z,101581.34
2022-10-29T20:29:37.184Z,101577.06
2022-10-29T20:32:03.837Z,101565.53
2022-10-29T20:34:30.271Z,101580.47
2022-10-29T20:36:56.826Z,101580.06
2022-10-29T20:39:37.689Z,101575.81
2022-10-29T20:42:04.143Z,101577.84
2022-10-29T20:44:30.776Z,101571.81
2022-10-29T20:46:57.261Z,101570.72
2022-10-29T20:49:23.711Z,101560.47
2022-10-29T20:51:52.570Z,101568.03
2022-10-29T20:54:19.534Z,101571.75
2022-10-29T20:56:45.997Z,101562.31
2022-10-29T20:59:12.511Z,101561.09
2022-10-29T21:01:39.180Z,101537.44
2022-10-29T21:04:06.027Z,101544.94
2022-10-29T21:06:32.582Z,101545.06
2022-10-29T21:08:59.075Z,101553.88
2022-10-29T21:11:25.513Z,101541.63
2022-10-29T21:13:51.921Z,101544.88
2022-10-29T21:16:27.364Z,101550.03
2022-10-29T21:18:55.949Z,101556.22
2022-10-29T21:21:22.870Z,101538.06
2022-10-29T21:23:50.801Z,101547.50
2022-10-29T21:26:19.605Z,101548.84
2022-10-29T21:28:47.561Z,101540.41
2022-10-29T21:31:14.315Z,101542.56
2022-10-29T21:33:41.036Z,101548.13
2022-10-29T21:36:08.350Z,101539.16
2022-10-29T21:38:34.916Z,101536.69
2022-10-29T21:41:04.375Z,101546.47
2022-10-29T21:43:30.832Z,101539.69
2022-10-29T21:45:57.305Z,101541.34
2022-10-29T21:48:28.228Z,101532.06
2022-10-29T21:51:05.174Z,101542.59
2022-10-29T21:53:31.729Z,101537.06
2022-10-29T21:55:59.330Z,101532.81
2022-10-29T21:58:26.330Z,101532.44
2022-10-29T22:01:06.878Z,101536.50
2022-10-29T22:03:34.953Z,101530.94
2022-10-29T22:06:07.046Z,101526.72
2022-10-29T22:08:34.414Z,101525.56
2022-10-29T22:11:00.915Z,101530.03
2022-10-29T22:13:31.748Z,101515.75
2022-10-29T22:15:58.473Z,101521.34
2022-10-29T22:18:25.745Z,101524.94
2022-10-29T22:21:06.464Z,101521.06
2022-10-29T22:23:33.326Z,101516.16
2022-10-29T22:25:59.797Z,101522.66
2022-10-29T22:28:26.243Z,101519.78
2022-10-29T22:31:04.236Z,101524.81
2022-10-29T22:33:30.917Z,101534.53
2022-10-29T22:36:12.988Z,101561.88
2022-10-29T22:38:39.680Z,101566.97
2022-10-29T22:41:10.970Z,101571.72
2022-10-29T22:43:37.880Z,101572.06
2022-10-29T22:46:05.153Z,101577.88
2022-10-29T22:48:35.432Z,101575.19
2022-10-29T22:51:06.066Z,101572.50
2022-10-29T22:53:32.865Z,101564.94
2022-10-29T22:56:00.070Z,101572.84
2022-10-29T22:58:26.694Z,101557.75
2022-10-29T23:01:05.636Z,101573.75
2022-10-29T23:03:33.429Z,101560.84
2022-10-29T23:06:01.768Z,101560.53
2022-10-29T23:08:28.337Z,101562.28
2022-10-29T23:10:54.790Z,101563.16
2022-10-29T23:13:21.401Z,101554.75
2022-10-29T23:15:48.636Z,101544.22
2022-10-29T23:18:15.397Z,101544.63
2022-10-29T23:20:44.112Z,101538.91
2022-10-29T23:23:10.830Z,101542.47
2022-10-29T23:25:40.575Z,101534.16
2022-10-29T23:28:07.645Z,101538.47
2022-10-29T23:30:34.179Z,101534.72
2022-10-29T23:33:00.906Z,101530.84
2022-10-29T23:35:27.502Z,101520.59
2022-10-29T23:37:54.100Z,101522.47
2022-10-29T23:40:20.536Z,101511.03
2022-10-29T23:42:47.230Z,101506.56
2022-10-29T23:45:15.474Z,101509.00
2022-10-29T23:47:41.901Z,101511.69
2022-10-29T23:50:08.708Z,101518.56
2022-10-29T23:52:35.121Z,101513.31
2022-10-29T23:55:01.533Z,101507.69
2022-10-29T23:57:28.084Z,101510.78
2022-10-29T23:59:54.517Z,101507.69
